createdAt,value
2023-01-23T00:01:33.441Z,100841.63
2023-01-23T00:04:01.068Z,100838.56
2023-01-23T00:06:28.716Z,100830.81
2023-01-23T00:08:56.979Z,100826.97
2023-01-23T00:11:28.613Z,100826.22
2023-01-23T00:13:57.377Z,100835.16
2023-01-23T00:16:26.849Z,100833.97
2023-01-23T00:18:54.362Z,100834.63
2023-01-23T00:21:24.258Z,100832.00
2023-01-23T00:23:56.253Z,100828.88
2023-01-23T00:26:25.834Z,100828.88
2023-01-23T00:28:54.683Z,100826.63
2023-01-23T00:31:25.374Z,100829.69
2023-01-23T00:33:58.460Z,100829.69
2023-01-23T00:36:31.352Z,100828.19
2023-01-23T00:38:58.716Z,100844.88
2023-01-23T00:41:26.115Z,100836.34
2023-01-23T00:43:56.278Z,100839.78
2023-01-23T00:46:23.670Z,100849.03
2023-01-23T00:48:51.527Z,100848.28
2023-01-23T00:51:18.978Z,100847.44
2023-01-23T00:53:49.915Z,100844.38
2023-01-23T00:56:17.063Z,100837.38
2023-01-23T00:58:45.347Z,100836.19
2023-01-23T01:01:14.451Z,100836.69
2023-01-23T01:03:42.272Z,100839.78
2023-01-23T01:06:10.634Z,100839.00
2023-01-23T01:08:40.216Z,100833.88
2023-01-23T01:11:07.833Z,100836.63
2023-01-23T01:13:37.804Z,100835.41
2023-01-23T01:16:08.217Z,100843.25
2023-01-23T01:18:36.622Z,100833.47
2023-01-23T01:21:14.420Z,100834.63
2023-01-23T01:23:42.013Z,100832.69
2023-01-23T01:26:09.716Z,100827.66
2023-01-23T01:28:39.419Z,100828.00
2023-01-23T01:31:17.076Z,100822.56
2023-01-23T01:33:45.253Z,100825.72
2023-01-23T01:36:14.980Z,100831.16
2023-01-23T01:38:42.697Z,100828.19
2023-01-23T01:41:12.251Z,100821.16
2023-01-23T01:43:39.608Z,100820.69
2023-01-23T01:46:20.609Z,100824.59
2023-01-23T01:48:57.126Z,100825.44
2023-01-23T01:51:34.440Z,100833.13
2023-01-23T01:54:10.698Z,100828.53
2023-01-23T01:56:43.293Z,100831.25
2023-01-23T01:59:12.187Z,100838.91
2023-01-23T02:01:41.612Z,100833.47
2023-01-23T02:04:09.753Z,100840.09
2023-01-23T02:06:36.928Z,100831.91
2023-01-23T02:09:12.908Z,100843.50
2023-01-23T02:11:40.075Z,100845.47
2023-01-23T02:14:07.681Z,100841.97
2023-01-23T02:16:41.076Z,100834.91
2023-01-23T02:19:27.603Z,100820.91
2023-01-23T02:22:06.373Z,100809.91
2023-01-23T02:24:43.098Z,100816.25
2023-01-23T02:27:12.451Z,100813.84
2023-01-23T02:29:42.179Z,100805.25
2023-01-23T02:32:10.435Z,100795.84
2023-01-23T02:34:38.849Z,100807.97
2023-01-23T02:37:09.299Z,100807.53
2023-01-23T02:39:37.542Z,100802.78
2023-01-23T02:42:07.611Z,100798.75
2023-01-23T02:44:53.936Z,100815.03
2023-01-23T02:47:24.537Z,100823.56
2023-01-23T02:49:52.189Z,100834.03
2023-01-23T02:52:19.451Z,100839.75
2023-01-23T02:54:47.622Z,100854.50
2023-01-23T02:57:15.656Z,100842.81
2023-01-23T03:00:01.499Z,100842.72
2023-01-23T03:02:30.066Z,100848.09
2023-01-23T03:04:57.354Z,100853.88
2023-01-23T03:07:29.897Z,100858.47
2023-01-23T03:09:57.319Z,100857.03
2023-01-23T03:12:24.355Z,100859.34
2023-01-23T03:14:56.535Z,100865.63
2023-01-23T03:17:24.153Z,100873.50
2023-01-23T03:19:52.865Z,100878.09
2023-01-23T03:22:20.141Z,100872.97
2023-01-23T03:24:47.599Z,100873.63
2023-01-23T03:27:14.909Z,100885.41
2023-01-23T03:30:05.749Z,100892.50
2023-01-23T03:32:32.975Z,100881.59
2023-01-23T03:35:00.471Z,100876.53
2023-01-23T03:37:30.341Z,100878.09
2023-01-23T03:40:16.931Z,100870.78
2023-01-23T03:42:44.015Z,100865.31
2023-01-23T03:45:14.683Z,100860.25
2023-01-23T03:47:42.746Z,100840.34
2023-01-23T03:50:10.301Z,100829.84
2023-01-23T03:52:39.613Z,100807.69
2023-01-23T03:55:07.959Z,100804.63
2023-01-23T03:57:38.697Z,100810.84
2023-01-23T04:00:16.947Z,100824.91
2023-01-23T04:02:50.517Z,100838.97
2023-01-23T04:05:19.079Z,100838.22
2023-01-23T04:07:46.187Z,100832.84
2023-01-23T04:10:17.012Z,100847.66
2023-01-23T04:12:49.008Z,100839.56
2023-01-23T04:15:16.583Z,100837.44
2023-01-23T04:17:44.457Z,100846.84
2023-01-23T04:20:13.645Z,100830.56
2023-01-23T04:22:42.628Z,100832.50
2023-01-23T04:25:10.382Z,100828.66
2023-01-23T04:27:37.555Z,100842.28
2023-01-23T04:30:06.307Z,100838.81
2023-01-23T04:32:35.133Z,100847.31
2023-01-23T04:35:03.233Z,100860.72
2023-01-23T04:37:31.088Z,100859.88
2023-01-23T04:39:59.583Z,100850.38
2023-01-23T04:42:28.878Z,100850.56
2023-01-23T04:45:04.287Z,100858.41
2023-01-23T04:47:34.342Z,100859.09
2023-01-23T04:50:05.010Z,100871.94
2023-01-23T04:52:35.400Z,100862.59
2023-01-23T04:55:06.759Z,100871.13
2023-01-23T04:57:34.050Z,100876.22
2023-01-23T05:00:13.714Z,100855.94
2023-01-23T05:02:40.980Z,100851.16
2023-01-23T05:05:09.225Z,100847.75
2023-01-23T05:07:40.261Z,100853.47
2023-01-23T05:10:10.921Z,100858.75
2023-01-23T05:16:09.278Z,100856.28
2023-01-23T05:18:56.757Z,100857.13
2023-01-23T05:21:26.716Z,100857.06
2023-01-23T05:23:54.703Z,100857.06
2023-01-23T05:26:22.263Z,100853.47
2023-01-23T05:28:49.656Z,100849.66
2023-01-23T05:31:16.784Z,100850.75
2023-01-23T05:33:58.606Z,100837.53
2023-01-23T05:36:25.793Z,100833.03
2023-01-23T05:38:57.715Z,100835.31
2023-01-23T05:41:28.445Z,100819.81
2023-01-23T05:44:35.260Z,100834.72
2023-01-23T05:47:11.818Z,100844.44
2023-01-23T05:49:39.111Z,100849.03
2023-01-23T05:52:06.439Z,100858.00
2023-01-23T05:54:34.409Z,100858.00
2023-01-23T05:57:01.479Z,100863.84
2023-01-23T05:59:47.393Z,100857.22
2023-01-23T06:02:35.218Z,100867.72
2023-01-23T06:05:08.989Z,100872.03
2023-01-23T06:07:58.297Z,100873.94
2023-01-23T06:10:26.058Z,100885.94
2023-01-23T06:12:53.096Z,100887.16
2023-01-23T06:15:25.377Z,100899.56
2023-01-23T06:17:57.281Z,100909.31
2023-01-23T06:20:26.027Z,100910.91
2023-01-23T06:22:53.025Z,100916.72
2023-01-23T06:25:22.089Z,100920.13
2023-01-23T06:27:49.895Z,100927.03
2023-01-23T06:30:17.925Z,100927.03
2023-01-23T06:32:46.965Z,100923.53
2023-01-23T06:35:18.480Z,100915.34
2023-01-23T06:37:49.461Z,100921.50
2023-01-23T06:40:22.759Z,100925.81
2023-01-23T06:43:02.332Z,100929.25
2023-01-23T06:45:29.925Z,100934.00
2023-01-23T06:47:58.074Z,100933.53
2023-01-23T06:50:27.734Z,100933.53
2023-01-23T06:52:54.904Z,100931.88
2023-01-23T06:55:23.063Z,100928.38
2023-01-23T06:57:50.200Z,100930.72
2023-01-23T07:00:19.513Z,100937.25
2023-01-23T07:02:47.113Z,100934.44
2023-01-23T07:05:14.814Z,100937.59
2023-01-23T07:07:45.898Z,100936.75
2023-01-23T07:10:13.558Z,100936.06
2023-01-23T07:12:40.642Z,100942.63
2023-01-23T07:15:09.620Z,100949.19
2023-01-23T07:17:40.485Z,100946.47
2023-01-23T07:20:08.996Z,100949.78
2023-01-23T07:22:41.319Z,100942.47
2023-01-23T07:25:08.996Z,100943.56
2023-01-23T07:27:36.135Z,100948.16
2023-01-23T07:30:06.465Z,100947.06
2023-01-23T07:32:33.515Z,100944.75
2023-01-23T07:35:01.103Z,100945.00
2023-01-23T07:37:29.339Z,100947.66
2023-01-23T07:39:57.544Z,100951.91
2023-01-23T07:42:24.658Z,100955.50
2023-01-23T07:44:53.754Z,100965.22
2023-01-23T07:47:23.702Z,100963.59
2023-01-23T07:49:50.944Z,100958.91
2023-01-23T07:52:18.329Z,100952.25
2023-01-23T07:54:47.662Z,100947.56
2023-01-23T07:57:17.504Z,100945.63
2023-01-23T07:59:44.547Z,100959.50
2023-01-23T08:02:11.854Z,100945.97
2023-01-23T08:04:39.038Z,100948.16
2023-01-23T08:07:06.689Z,100951.97
2023-01-23T08:09:33.766Z,100962.81
2023-01-23T08:12:01.105Z,100976.03
2023-01-23T08:14:30.415Z,100960.00
2023-01-23T08:17:01.666Z,100953.69
2023-01-23T08:19:28.827Z,100959.38
2023-01-23T08:21:59.280Z,100958.03
2023-01-23T08:24:28.481Z,100957.34
2023-01-23T08:27:00.322Z,100967.47
2023-01-23T08:29:28.126Z,100963.66
2023-01-23T08:31:55.602Z,100969.13
2023-01-23T08:34:24.140Z,100962.34
2023-01-23T08:36:51.692Z,100968.69
2023-01-23T08:39:21.231Z,100969.03
2023-01-23T08:41:48.602Z,100986.06
2023-01-23T08:44:15.635Z,100984.63
2023-01-23T08:46:45.994Z,100964.75
2023-01-23T08:49:13.485Z,100967.81
2023-01-23T08:51:43.067Z,100967.03
2023-01-23T08:54:10.262Z,100968.16
2023-01-23T08:56:37.668Z,100977.13
2023-01-23T08:59:04.750Z,100972.09
2023-01-23T09:01:32.124Z,100971.31
2023-01-23T09:03:59.187Z,100969.69
2023-01-23T09:06:28.956Z,100968.94
2023-01-23T09:08:56.091Z,100970.81
2023-01-23T09:11:23.956Z,100968.06
2023-01-23T09:13:53.798Z,100974.22
2023-01-23T09:16:21.867Z,100969.41
2023-01-23T09:18:49.012Z,100961.91
2023-01-23T09:21:17.751Z,100964.88
2023-01-23T09:23:45.725Z,100959.50
2023-01-23T09:26:18.150Z,100964.63
2023-01-23T09:28:46.779Z,100967.47
2023-01-23T09:31:14.516Z,100960.38
2023-01-23T09:33:42.392Z,100973.59
2023-01-23T09:36:10.199Z,100957.97
2023-01-23T09:38:37.205Z,100962.25
2023-01-23T09:41:19.466Z,100964.88
2023-01-23T09:43:59.320Z,100980.94
2023-01-23T09:46:33.193Z,100971.13
2023-01-23T09:49:11.183Z,100966.41
2023-01-23T09:51:38.579Z,100967.13
2023-01-23T09:54:13.881Z,100966.25
2023-01-23T09:56:43.595Z,100956.44
2023-01-23T09:59:10.677Z,100957.53
2023-01-23T10:01:38.278Z,100948.34
2023-01-23T10:04:05.998Z,100952.81
2023-01-23T10:07:06.670Z,100949.66
2023-01-23T10:10:18.790Z,100944.28
2023-01-23T10:13:03.490Z,100956.97
2023-01-23T10:15:30.521Z,100953.56
2023-01-23T10:18:26.704Z,100963.81
2023-01-23T10:21:02.479Z,100956.94
2023-01-23T10:23:54.279Z,100958.97
2023-01-23T10:26:31.622Z,100949.38
2023-01-23T10:29:14.145Z,100948.53
2023-01-23T10:31:53.988Z,100952.00
2023-01-23T10:34:34.481Z,100940.13
2023-01-23T10:37:17.076Z,100936.19
2023-01-23T10:40:10.430Z,100935.00
2023-01-23T10:42:37.397Z,100939.94
2023-01-23T10:45:06.411Z,100942.69
2023-01-23T10:47:44.049Z,100937.22
2023-01-23T10:50:11.786Z,100932.38
2023-01-23T10:52:42.398Z,100940.59
2023-01-23T10:55:21.405Z,100937.00
2023-01-23T10:57:53.252Z,100943.22
2023-01-23T11:00:34.095Z,100935.47
2023-01-23T11:03:20.122Z,100935.34
2023-01-23T11:05:53.562Z,100935.16
2023-01-23T11:08:31.273Z,100932.75
2023-01-23T11:11:16.109Z,100921.72
2023-01-23T11:13:48.686Z,100924.25
2023-01-23T11:16:19.811Z,100916.13
2023-01-23T11:19:09.100Z,100915.94
2023-01-23T11:21:57.590Z,100908.06
2023-01-23T11:24:40.373Z,100916.03
2023-01-23T11:27:20.366Z,100902.59
2023-01-23T11:30:09.300Z,100898.97
2023-01-23T11:32:58.685Z,100898.19
2023-01-23T11:36:12.066Z,100895.81
2023-01-23T11:38:52.519Z,100879.72
2023-01-23T11:41:27.003Z,100885.59
2023-01-23T11:43:54.385Z,100885.81
2023-01-23T11:46:27.574Z,100877.94
2023-01-23T11:49:39.722Z,100880.91
2023-01-23T11:52:17.996Z,100880.69
2023-01-23T11:55:04.087Z,100886.72
2023-01-23T11:57:54.370Z,100886.59
2023-01-23T12:00:54.666Z,100886.72
2023-01-23T12:03:40.392Z,100889.00
2023-01-23T12:06:20.448Z,100883.75
2023-01-23T12:08:53.731Z,100884.63
2023-01-23T12:11:24.608Z,100876.19
2023-01-23T12:14:00.900Z,100872.25
2023-01-23T12:16:39.875Z,100869.84
2023-01-23T12:19:16.153Z,100870.16
2023-01-23T12:21:57.844Z,100875.19
2023-01-23T12:24:54.171Z,100871.06
2023-01-23T12:27:34.428Z,100868.72
2023-01-23T12:30:25.383Z,100861.25
2023-01-23T12:33:01.241Z,100858.19
2023-01-23T12:35:50.795Z,100853.75
2023-01-23T12:38:29.472Z,100861.34
2023-01-23T12:41:06.541Z,100862.28
2023-01-23T12:43:55.079Z,100861.91
2023-01-23T12:46:39.681Z,100857.00
2023-01-23T12:49:25.421Z,100853.56
2023-01-23T12:52:17.900Z,100857.72
2023-01-23T12:54:53.670Z,100861.91
2023-01-23T12:57:52.827Z,100870.09
2023-01-23T13:00:53.533Z,100865.81
2023-01-23T13:03:44.958Z,100856.13
2023-01-23T13:06:34.937Z,100860.66
2023-01-23T13:09:29.176Z,100853.84
2023-01-23T13:12:08.834Z,100866.28
2023-01-23T13:15:06.499Z,100863.41
2023-01-23T13:17:49.391Z,100866.28
2023-01-23T13:20:38.134Z,100864.47
2023-01-23T13:23:26.438Z,100866.41
2023-01-23T13:26:12.436Z,100861.91
2023-01-23T13:28:50.499Z,100858.63
2023-01-23T13:31:26.863Z,100858.56
2023-01-23T13:34:06.654Z,100869.66
2023-01-23T13:36:37.858Z,100863.53
2023-01-23T13:39:22.052Z,100861.31
2023-01-23T13:42:12.805Z,100861.38
2023-01-23T13:45:21.493Z,100846.13
2023-01-23T14:25:42.655Z,100856.50
2023-01-23T14:28:16.797Z,100853.78
2023-01-23T14:30:55.592Z,100857.72
2023-01-23T14:33:23.413Z,100858.63
2023-01-23T14:35:53.377Z,100860.72
2023-01-23T14:38:29.259Z,100858.63
2023-01-23T14:40:58.946Z,100859.81
2023-01-23T14:43:29.180Z,100866.50
2023-01-23T14:46:14.013Z,100862.03
2023-01-23T14:48:47.356Z,100862.34
2023-01-23T14:51:26.169Z,100864.78
2023-01-23T14:54:01.614Z,100859.53
2023-01-23T14:56:36.864Z,100872.78
2023-01-23T14:59:07.262Z,100866.53
2023-01-23T15:01:36.007Z,100867.88
2023-01-23T15:04:06.425Z,100879.03
2023-01-23T15:06:35.910Z,100882.31
2023-01-23T15:09:09.103Z,100882.31
2023-01-23T15:11:39.520Z,100882.31
2023-01-23T15:14:22.449Z,100875.31
2023-01-23T15:16:51.883Z,100886.69
2023-01-23T15:19:27.028Z,100886.47
2023-01-23T15:22:28.019Z,100890.44
2023-01-23T15:24:56.068Z,100897.97
2023-01-23T15:27:33.978Z,100901.50
2023-01-23T15:30:29.095Z,100900.59
2023-01-23T15:32:58.070Z,100898.19
2023-01-23T15:35:25.720Z,100910.00
2023-01-23T15:37:59.665Z,100906.53
2023-01-23T15:40:28.160Z,100902.56
2023-01-23T15:43:18.831Z,100901.78
2023-01-23T15:45:47.055Z,100902.56
2023-01-23T15:48:17.040Z,100913.84
2023-01-23T15:50:44.106Z,100913.41
2023-01-23T15:53:13.727Z,100915.38
2023-01-23T15:55:44.046Z,100914.50
2023-01-23T15:58:17.213Z,100916.25
2023-01-23T16:00:44.476Z,100911.00
2023-01-23T16:03:14.815Z,100912.72
2023-01-23T16:05:42.206Z,100916.03
2023-01-23T16:08:20.907Z,100906.94
2023-01-23T16:10:50.531Z,100910.56
2023-01-23T16:13:17.968Z,100907.94
2023-01-23T16:15:45.342Z,100905.53
2023-01-23T16:18:15.072Z,100905.31
2023-01-23T16:20:45.359Z,100906.84
2023-01-23T16:23:31.234Z,100910.66
2023-01-23T16:26:03.009Z,100916.59
2023-01-23T16:28:32.510Z,100924.25
2023-01-23T16:30:59.667Z,100931.25
2023-01-23T16:33:31.937Z,100926.53
2023-01-23T16:35:59.134Z,100927.63
2023-01-23T16:38:29.041Z,100932.66
2023-01-23T16:40:59.646Z,100942.41
2023-01-23T16:43:27.579Z,100933.44
2023-01-23T16:45:56.928Z,100939.25
2023-01-23T16:48:28.510Z,100933.88
2023-01-23T16:51:05.164Z,100933.09
2023-01-23T16:53:41.024Z,100939.66
2023-01-23T16:56:21.836Z,100948.88
2023-01-23T16:58:50.545Z,100950.09
2023-01-23T17:01:23.686Z,100958.41
2023-01-23T17:04:03.942Z,100957.28
2023-01-23T17:06:33.260Z,100959.16
2023-01-23T17:09:01.618Z,100945.47
2023-01-23T17:12:12.666Z,100958.28
2023-01-23T17:14:42.842Z,100954.88
2023-01-23T17:17:17.357Z,100956.09
2023-01-23T17:19:47.328Z,100958.19
2023-01-23T17:22:27.896Z,100962.53
2023-01-23T17:24:55.839Z,100955.09
2023-01-23T17:27:23.137Z,100956.97
2023-01-23T17:29:50.993Z,100962.44
2023-01-23T17:32:27.373Z,100962.88
2023-01-23T17:34:55.616Z,100959.69
2023-01-23T17:37:23.711Z,100959.38
2023-01-23T17:39:52.029Z,100970.31
2023-01-23T17:42:19.672Z,100974.38
2023-01-23T17:44:48.058Z,100965.72
2023-01-23T17:47:17.090Z,100958.72
2023-01-23T17:49:51.708Z,100961.34
2023-01-23T17:52:22.390Z,100971.97
2023-01-23T17:54:50.220Z,100972.75
2023-01-23T17:57:17.682Z,100966.38
2023-01-23T17:59:47.768Z,100974.69
2023-01-23T18:02:30.699Z,100972.41
2023-01-23T18:04:59.834Z,100979.72
2023-01-23T18:07:27.863Z,100980.50
2023-01-23T18:09:56.585Z,100985.22
2023-01-23T18:13:03.464Z,100980.50
2023-01-23T18:15:35.343Z,100983.25
2023-01-23T18:18:03.067Z,100986.63
2023-01-23T18:20:38.851Z,100982.81
2023-01-23T18:23:11.680Z,100991.56
2023-01-23T18:25:45.498Z,100978.53
2023-01-23T18:28:19.928Z,100982.81
2023-01-23T18:31:16.889Z,100980.28
2023-01-23T18:34:03.666Z,100985.66
2023-01-23T18:36:40.081Z,100979.50
2023-01-23T18:39:27.454Z,100975.59
2023-01-23T18:42:14.692Z,100967.28
2023-01-23T18:44:49.489Z,100978.22
2023-01-23T18:47:17.660Z,100976.31
2023-01-23T18:49:46.146Z,100983.69
2023-01-23T18:52:13.507Z,100986.31
2023-01-23T18:55:00.415Z,100979.72
2023-01-23T18:57:32.481Z,100982.47
2023-01-23T19:00:13.251Z,100977.44
2023-01-23T19:02:41.246Z,100977.00
2023-01-23T19:05:16.607Z,100985.22
2023-01-23T19:07:45.588Z,100988.38
2023-01-23T19:10:15.220Z,100991.44
2023-01-23T19:12:51.047Z,100984.44
2023-01-23T19:15:23.246Z,100986.84
2023-01-23T19:18:07.086Z,100975.47
2023-01-23T19:20:44.235Z,100980.94
2023-01-23T19:23:29.718Z,100973.94
2023-01-23T19:25:58.396Z,100981.34
2023-01-23T19:28:26.453Z,100980.72
2023-01-23T19:30:59.458Z,100983.13
2023-01-23T19:33:27.365Z,100982.34
2023-01-23T19:35:58.511Z,100987.72
2023-01-23T19:38:26.257Z,100997.78
2023-01-23T19:40:55.251Z,101002.50
2023-01-23T19:43:24.238Z,100995.47
2023-01-23T19:45:52.450Z,101001.41
2023-01-23T19:48:20.035Z,100997.13
2023-01-23T19:50:48.706Z,101004.91
2023-01-23T19:53:19.741Z,101002.50
2023-01-23T19:55:47.384Z,101012.66
2023-01-23T19:58:16.284Z,101007.97
2023-01-23T20:00:45.677Z,101010.72
2023-01-23T20:03:15.311Z,101013.44
2023-01-23T20:05:43.416Z,101016.53
2023-01-23T20:08:11.727Z,101027.88
2023-01-23T20:10:40.041Z,101028.97
2023-01-23T20:13:10.004Z,101037.97
2023-01-23T20:15:38.198Z,101034.56
2023-01-23T20:18:10.241Z,101037.41
2023-01-23T20:20:38.177Z,101038.63
2023-01-23T20:23:05.800Z,101042.00
2023-01-23T20:25:33.834Z,101031.81
2023-01-23T20:28:04.164Z,101033.47
2023-01-23T20:30:34.012Z,101030.41
2023-01-23T20:33:02.567Z,101032.16
2023-01-23T20:35:31.213Z,101036.09
2023-01-23T20:38:02.325Z,101026.69
2023-01-23T20:40:30.415Z,101028.75
2023-01-23T20:42:58.251Z,101030.84
2023-01-23T20:45:27.250Z,101044.41
2023-01-23T20:47:58.741Z,101045.16
2023-01-23T20:50:27.259Z,101038.72
2023-01-23T20:53:15.662Z,101042.63
2023-01-23T20:55:44.438Z,101048.00
2023-01-23T20:58:30.925Z,101042.97
2023-01-23T21:00:59.063Z,101046.91
2023-01-23T21:03:27.087Z,101048.00
2023-01-23T21:05:54.936Z,101044.94
2023-01-23T21:08:23.364Z,101051.19
2023-01-23T21:10:53.053Z,101040.69
2023-01-23T21:13:23.443Z,101046.91
2023-01-23T21:15:58.689Z,101055.22
2023-01-23T21:18:26.231Z,101054.47
2023-01-23T21:20:54.044Z,101062.31
2023-01-23T21:23:21.741Z,101064.63
2023-01-23T21:25:49.392Z,101068.47
2023-01-23T21:28:17.051Z,101067.34
2023-01-23T21:30:44.641Z,101065.84
2023-01-23T21:33:14.379Z,101066.59
2023-01-23T21:35:41.845Z,101071.31
2023-01-23T21:38:08.968Z,101074.47
2023-01-23T21:40:36.317Z,101072.50
2023-01-23T21:43:03.533Z,101072.19
2023-01-23T21:45:33.553Z,101076.00
2023-01-23T21:48:00.846Z,101079.50
2023-01-23T21:50:28.417Z,101079.94
2023-01-23T21:52:55.680Z,101075.91
2023-01-23T21:55:23.200Z,101076.69
2023-01-23T21:57:50.407Z,101071.09
2023-01-23T22:00:36.420Z,101064.09
2023-01-23T22:03:03.945Z,101071.53
2023-01-23T22:05:35.319Z,101072.72
2023-01-23T22:08:02.817Z,101081.72
2023-01-23T22:10:30.598Z,101076.69
2023-01-23T22:12:57.930Z,101075.47
2023-01-23T22:15:27.948Z,101073.50
2023-01-23T22:17:54.898Z,101077.84
2023-01-23T22:20:22.086Z,101072.28
2023-01-23T22:22:49.015Z,101069.25
2023-01-23T22:25:16.659Z,101075.47
2023-01-23T22:27:44.332Z,101071.63
2023-01-23T22:30:12.702Z,101065.63
2023-01-23T22:32:39.740Z,101068.91
2023-01-23T22:35:09.384Z,101064.53
2023-01-23T22:37:36.606Z,101065.97
2023-01-23T22:40:04.176Z,101069.16
2023-01-23T22:42:31.536Z,101065.63
2023-01-23T22:44:58.838Z,101084.78
2023-01-23T22:47:28.454Z,101083.56
2023-01-23T22:49:55.794Z,101084.78
2023-01-23T22:52:23.058Z,101085.66
2023-01-23T22:54:50.281Z,101087.09
2023-01-23T22:57:17.272Z,101098.91
2023-01-23T22:59:44.704Z,101091.78
2023-01-23T23:02:11.655Z,101086.97
2023-01-23T23:04:41.468Z,101090.41
2023-01-23T23:07:08.519Z,101097.81
2023-01-23T23:09:35.818Z,101102.09
2023-01-23T23:12:02.833Z,101108.78
2023-01-23T23:14:30.014Z,101104.06
2023-01-23T23:16:57.132Z,101101.34
2023-01-23T23:19:24.331Z,101104.16
2023-01-23T23:21:51.245Z,101095.53
2023-01-23T23:24:21.113Z,101099.00
2023-01-23T23:26:48.467Z,101096.59
2023-01-23T23:29:15.988Z,101091.56
2023-01-23T23:31:43.051Z,101094.31
2023-01-23T23:34:10.416Z,101093.53
2023-01-23T23:36:37.303Z,101088.50
2023-01-23T23:39:04.633Z,101093.22
2023-01-23T23:41:32.492Z,101091.56
2023-01-23T23:43:59.896Z,101086.00
2023-01-23T23:46:27.034Z,101086.88
2023-01-23T23:48:54.367Z,101090.16
2023-01-23T23:51:22.975Z,101091.69
2023-01-23T23:53:50.416Z,101098.38
2023-01-23T23:56:19.633Z,101093.22
2023-01-23T23:58:46.805Z,101093.97
